sensor_id;sensor_type;location;lat;lon;timestamp;P1;durP1;ratioP1;P2;durP2;ratioP2
53642;SDS011;39546;45.534;12.048;2023-06-10T00:01:28;6.22;;;3.67;;
53642;SDS011;39546;45.534;12.048;2023-06-10T00:07:31;3.62;;;2.45;;
53642;SDS011;39546;45.534;12.048;2023-06-10T00:13:33;4.00;;;2.58;;
53642;SDS011;39546;45.534;12.048;2023-06-10T00:19:36;4.75;;;3.30;;
53642;SDS011;39546;45.534;12.048;2023-06-10T00:25:42;4.43;;;2.40;;
53642;SDS011;39546;45.534;12.048;2023-06-10T00:31:44;3.50;;;2.33;;
53642;SDS011;39546;45.534;12.048;2023-06-10T00:37:47;4.40;;;3.10;;
53642;SDS011;39546;45.534;12.048;2023-06-10T00:43:50;5.43;;;3.33;;
53642;SDS011;39546;45.534;12.048;2023-06-10T00:49:52;3.72;;;2.75;;
53642;SDS011;39546;45.534;12.048;2023-06-10T00:55:56;5.32;;;3.15;;
53642;SDS011;39546;45.534;12.048;2023-06-10T01:01:58;3.78;;;1.80;;
53642;SDS011;39546;45.534;12.048;2023-06-10T01:14:44;5.15;;;2.97;;
53642;SDS011;39546;45.534;12.048;2023-06-10T01:20:47;2.95;;;2.05;;
53642;SDS011;39546;45.534;12.048;2023-06-10T01:26:50;5.72;;;2.72;;
53642;SDS011;39546;45.534;12.048;2023-06-10T01:32:55;5.60;;;2.97;;
53642;SDS011;39546;45.534;12.048;2023-06-10T01:38:58;4.57;;;3.30;;
53642;SDS011;39546;45.534;12.048;2023-06-10T01:45:02;4.32;;;2.92;;
53642;SDS011;39546;45.534;12.048;2023-06-10T01:51:04;5.57;;;4.07;;
53642;SDS011;39546;45.534;12.048;2023-06-10T01:57:07;5.07;;;3.25;;
53642;SDS011;39546;45.534;12.048;2023-06-10T02:03:09;4.97;;;2.97;;
53642;SDS011;39546;45.534;12.048;2023-06-10T02:09:11;3.45;;;1.77;;
53642;SDS011;39546;45.534;12.048;2023-06-10T02:15:13;5.32;;;3.70;;
53642;SDS011;39546;45.534;12.048;2023-06-10T02:21:15;7.53;;;4.57;;
53642;SDS011;39546;45.534;12.048;2023-06-10T02:27:17;5.80;;;4.07;;
53642;SDS011;39546;45.534;12.048;2023-06-10T02:33:19;4.37;;;2.87;;
53642;SDS011;39546;45.534;12.048;2023-06-10T02:39:22;7.07;;;4.37;;
53642;SDS011;39546;45.534;12.048;2023-06-10T02:45:25;7.20;;;5.35;;
53642;SDS011;39546;45.534;12.048;2023-06-10T02:51:28;5.97;;;4.07;;
53642;SDS011;39546;45.534;12.048;2023-06-10T02:57:30;6.90;;;4.30;;
53642;SDS011;39546;45.534;12.048;2023-06-10T03:03:33;7.30;;;5.20;;
53642;SDS011;39546;45.534;12.048;2023-06-10T03:09:37;5.90;;;4.37;;
53642;SDS011;39546;45.534;12.048;2023-06-10T03:15:40;6.82;;;4.20;;
53642;SDS011;39546;45.534;12.048;2023-06-10T03:21:44;6.57;;;3.95;;
53642;SDS011;39546;45.534;12.048;2023-06-10T03:27:48;7.30;;;4.60;;
53642;SDS011;39546;45.534;12.048;2023-06-10T03:33:50;6.43;;;4.35;;
53642;SDS011;39546;45.534;12.048;2023-06-10T03:39:53;6.20;;;4.65;;
53642;SDS011;39546;45.534;12.048;2023-06-10T03:45:55;5.97;;;3.67;;
53642;SDS011;39546;45.534;12.048;2023-06-10T03:51:57;8.05;;;4.50;;
53642;SDS011;39546;45.534;12.048;2023-06-10T03:58:00;7.45;;;4.93;;
53642;SDS011;39546;45.534;12.048;2023-06-10T04:04:04;7.28;;;4.50;;
53642;SDS011;39546;45.534;12.048;2023-06-10T04:10:09;7.12;;;4.50;;
53642;SDS011;39546;45.534;12.048;2023-06-10T04:16:11;7.20;;;5.03;;
53642;SDS011;39546;45.534;12.048;2023-06-10T04:22:14;7.32;;;4.82;;
53642;SDS011;39546;45.534;12.048;2023-06-10T04:28:17;6.18;;;4.35;;
53642;SDS011;39546;45.534;12.048;2023-06-10T04:34:19;9.07;;;4.80;;
53642;SDS011;39546;45.534;12.048;2023-06-10T04:40:21;10.25;;;8.48;;
53642;SDS011;39546;45.534;12.048;2023-06-10T04:46:24;11.40;;;6.53;;
53642;SDS011;39546;45.534;12.048;2023-06-10T04:52:26;11.23;;;7.53;;
53642;SDS011;39546;45.534;12.048;2023-06-10T04:58:29;10.93;;;7.65;;
53642;SDS011;39546;45.534;12.048;2023-06-10T05:04:31;11.98;;;7.20;;
53642;SDS011;39546;45.534;12.048;2023-06-10T05:10:33;8.40;;;6.35;;
53642;SDS011;39546;45.534;12.048;2023-06-10T05:16:36;10.95;;;8.77;;
53642;SDS011;39546;45.534;12.048;2023-06-10T05:22:38;11.50;;;8.13;;
53642;SDS011;39546;45.534;12.048;2023-06-10T05:28:40;9.88;;;7.28;;
53642;SDS011;39546;45.534;12.048;2023-06-10T05:34:42;12.35;;;8.20;;
53642;SDS011;39546;45.534;12.048;2023-06-10T05:40:45;12.52;;;8.50;;
53642;SDS011;39546;45.534;12.048;2023-06-10T05:46:47;13.75;;;10.43;;
53642;SDS011;39546;45.534;12.048;2023-06-10T05:52:49;10.23;;;7.40;;
53642;SDS011;39546;45.534;12.048;2023-06-10T05:58:53;9.88;;;6.62;;
53642;SDS011;39546;45.534;12.048;2023-06-10T06:04:55;10.80;;;8.25;;
53642;SDS011;39546;45.534;12.048;2023-06-10T06:10:57;9.15;;;6.40;;
53642;SDS011;39546;45.534;12.048;2023-06-10T06:16:59;10.43;;;7.20;;
53642;SDS011;39546;45.534;12.048;2023-06-10T06:23:01;7.70;;;5.78;;
53642;SDS011;39546;45.534;12.048;2023-06-10T06:29:03;11.10;;;8.57;;
53642;SDS011;39546;45.534;12.048;2023-06-10T06:35:05;8.00;;;6.53;;
53642;SDS011;39546;45.534;12.048;2023-06-10T06:41:09;9.52;;;6.87;;
53642;SDS011;39546;45.534;12.048;2023-06-10T06:47:24;7.93;;;6.05;;
53642;SDS011;39546;45.534;12.048;2023-06-10T06:53:27;9.35;;;6.70;;
53642;SDS011;39546;45.534;12.048;2023-06-10T06:59:29;9.52;;;7.07;;
53642;SDS011;39546;45.534;12.048;2023-06-10T07:05:31;12.00;;;6.85;;
53642;SDS011;39546;45.534;12.048;2023-06-10T07:11:33;7.25;;;5.37;;
53642;SDS011;39546;45.534;12.048;2023-06-10T07:17:36;11.05;;;8.25;;
53642;SDS011;39546;45.534;12.048;2023-06-10T07:23:41;15.48;;;7.62;;
53642;SDS011;39546;45.534;12.048;2023-06-10T07:29:44;9.23;;;6.78;;
53642;SDS011;39546;45.534;12.048;2023-06-10T07:35:46;18.73;;;16.08;;
53642;SDS011;39546;45.534;12.048;2023-06-10T07:41:48;14.57;;;10.70;;
53642;SDS011;39546;45.534;12.048;2023-06-10T07:47:51;10.57;;;8.02;;
53642;SDS011;39546;45.534;12.048;2023-06-10T07:53:53;14.27;;;10.35;;
53642;SDS011;39546;45.534;12.048;2023-06-10T07:59:55;17.42;;;11.60;;
53642;SDS011;39546;45.534;12.048;2023-06-10T08:05:59;16.90;;;11.57;;
53642;SDS011;39546;45.534;12.048;2023-06-10T08:12:01;15.40;;;11.52;;
53642;SDS011;39546;45.534;12.048;2023-06-10T08:24:43;13.35;;;11.43;;
53642;SDS011;39546;45.534;12.048;2023-06-10T08:30:45;14.98;;;10.88;;
53642;SDS011;39546;45.534;12.048;2023-06-10T08:36:48;16.45;;;13.15;;
53642;SDS011;39546;45.534;12.048;2023-06-10T08:43:06;13.73;;;11.18;;
53642;SDS011;39546;45.534;12.048;2023-06-10T08:49:09;13.25;;;11.05;;
53642;SDS011;39546;45.534;12.048;2023-06-10T08:55:21;10.20;;;6.60;;
53642;SDS011;39546;45.534;12.048;2023-06-10T09:01:29;13.80;;;10.40;;
53642;SDS011;39546;45.534;12.048;2023-06-10T09:07:32;16.65;;;12.37;;
53642;SDS011;39546;45.534;12.048;2023-06-10T09:13:36;23.00;;;16.55;;
53642;SDS011;39546;45.534;12.048;2023-06-10T09:19:38;15.70;;;10.32;;
53642;SDS011;39546;45.534;12.048;2023-06-10T09:25:42;18.10;;;13.60;;
53642;SDS011;39546;45.534;12.048;2023-06-10T09:31:44;14.80;;;11.63;;
53642;SDS011;39546;45.534;12.048;2023-06-10T09:37:46;16.35;;;12.80;;
53642;SDS011;39546;45.534;12.048;2023-06-10T09:43:55;14.95;;;11.63;;
53642;SDS011;39546;45.534;12.048;2023-06-10T09:49:57;16.83;;;12.32;;
53642;SDS011;39546;45.534;12.048;2023-06-10T09:55:59;28.25;;;16.20;;
53642;SDS011;39546;45.534;12.048;2023-06-10T10:02:02;21.40;;;18.60;;
53642;SDS011;39546;45.534;12.048;2023-06-10T10:08:08;19.37;;;14.93;;
53642;SDS011;39546;45.534;12.048;2023-06-10T10:14:10;18.48;;;14.98;;
53642;SDS011;39546;45.534;12.048;2023-06-10T10:20:16;12.20;;;9.20;;
53642;SDS011;39546;45.534;12.048;2023-06-10T10:26:21;14.45;;;11.93;;
53642;SDS011;39546;45.534;12.048;2023-06-10T10:32:50;15.43;;;11.95;;
53642;SDS011;39546;45.534;12.048;2023-06-10T10:38:47;18.20;;;15.13;;
53642;SDS011;39546;45.534;12.048;2023-06-10T10:44:50;19.70;;;15.00;;
53642;SDS011;39546;45.534;12.048;2023-06-10T10:50:56;11.12;;;8.70;;
53642;SDS011;39546;45.534;12.048;2023-06-10T11:03:16;11.48;;;7.90;;
53642;SDS011;39546;45.534;12.048;2023-06-10T11:09:28;11.88;;;8.68;;
53642;SDS011;39546;45.534;12.048;2023-06-10T11:15:30;11.20;;;9.05;;
53642;SDS011;39546;45.534;12.048;2023-06-10T11:21:36;12.68;;;11.10;;
53642;SDS011;39546;45.534;12.048;2023-06-10T11:27:57;11.27;;;9.85;;
53642;SDS011;39546;45.534;12.048;2023-06-10T11:34:03;12.48;;;8.93;;
53642;SDS011;39546;45.534;12.048;2023-06-10T11:40:07;9.25;;;7.82;;
53642;SDS011;39546;45.534;12.048;2023-06-10T11:46:10;8.80;;;6.07;;
53642;SDS011;39546;45.534;12.048;2023-06-10T11:52:13;10.52;;;5.75;;
53642;SDS011;39546;45.534;12.048;2023-06-10T11:58:21;13.25;;;10.45;;
53642;SDS011;39546;45.534;12.048;2023-06-10T12:04:24;13.80;;;9.55;;
53642;SDS011;39546;45.534;12.048;2023-06-10T12:10:27;11.85;;;9.32;;
53642;SDS011;39546;45.534;12.048;2023-06-10T12:16:29;15.45;;;13.07;;
53642;SDS011;39546;45.534;12.048;2023-06-10T12:22:38;17.70;;;15.80;;
53642;SDS011;39546;45.534;12.048;2023-06-10T12:28:50;23.58;;;9.30;;
53642;SDS011;39546;45.534;12.048;2023-06-10T12:35:02;13.27;;;9.48;;
53642;SDS011;39546;45.534;12.048;2023-06-10T12:41:05;15.45;;;13.82;;
53642;SDS011;39546;45.534;12.048;2023-06-10T12:47:08;25.90;;;18.70;;
53642;SDS011;39546;45.534;12.048;2023-06-10T12:53:52;11.93;;;9.90;;
53642;SDS011;39546;45.534;12.048;2023-06-10T12:59:54;10.27;;;8.50;;
53642;SDS011;39546;45.534;12.048;2023-06-10T13:06:03;9.63;;;5.82;;
53642;SDS011;39546;45.534;12.048;2023-06-10T13:12:11;11.93;;;8.70;;
53642;SDS011;39546;45.534;12.048;2023-06-10T13:18:13;13.25;;;7.62;;
53642;SDS011;39546;45.534;12.048;2023-06-10T13:24:15;8.77;;;6.18;;
53642;SDS011;39546;45.534;12.048;2023-06-10T13:30:17;14.87;;;10.13;;
53642;SDS011;39546;45.534;12.048;2023-06-10T13:36:19;8.10;;;5.43;;
53642;SDS011;39546;45.534;12.048;2023-06-10T13:42:22;6.18;;;4.37;;
53642;SDS011;39546;45.534;12.048;2023-06-10T13:48:33;13.15;;;4.00;;
53642;SDS011;39546;45.534;12.048;2023-06-10T13:54:54;7.10;;;4.32;;
53642;SDS011;39546;45.534;12.048;2023-06-10T14:00:56;7.60;;;2.58;;
53642;SDS011;39546;45.534;12.048;2023-06-10T14:06:59;3.60;;;2.22;;
53642;SDS011;39546;45.534;12.048;2023-06-10T14:13:02;4.90;;;2.65;;
53642;SDS011;39546;45.534;12.048;2023-06-10T14:19:04;4.15;;;1.70;;
53642;SDS011;39546;45.534;12.048;2023-06-10T14:25:15;3.67;;;2.28;;
53642;SDS011;39546;45.534;12.048;2023-06-10T14:31:18;4.05;;;1.80;;
53642;SDS011;39546;45.534;12.048;2023-06-10T14:37:21;5.25;;;2.03;;
53642;SDS011;39546;45.534;12.048;2023-06-10T14:43:23;3.08;;;2.25;;
53642;SDS011;39546;45.534;12.048;2023-06-10T14:49:25;3.65;;;2.15;;
53642;SDS011;39546;45.534;12.048;2023-06-10T14:55:27;3.97;;;2.08;;
53642;SDS011;39546;45.534;12.048;2023-06-10T15:01:29;5.95;;;3.08;;
53642;SDS011;39546;45.534;12.048;2023-06-10T15:07:41;4.45;;;2.55;;
53642;SDS011;39546;45.534;12.048;2023-06-10T15:13:44;3.85;;;2.28;;
53642;SDS011;39546;45.534;12.048;2023-06-10T15:19:47;3.70;;;1.80;;
53642;SDS011;39546;45.534;12.048;2023-06-10T15:25:49;2.62;;;1.50;;
53642;SDS011;39546;45.534;12.048;2023-06-10T15:31:52;2.67;;;1.37;;
53642;SDS011;39546;45.534;12.048;2023-06-10T15:37:55;3.55;;;1.83;;
53642;SDS011;39546;45.534;12.048;2023-06-10T15:44:23;2.05;;;1.40;;
53642;SDS011;39546;45.534;12.048;2023-06-10T15:50:25;4.90;;;2.15;;
53642;SDS011;39546;45.534;12.048;2023-06-10T15:56:38;4.32;;;2.10;;
53642;SDS011;39546;45.534;12.048;2023-06-10T16:02:41;3.92;;;1.75;;
53642;SDS011;39546;45.534;12.048;2023-06-10T16:15:08;3.47;;;1.92;;
53642;SDS011;39546;45.534;12.048;2023-06-10T16:21:38;2.78;;;1.10;;
53642;SDS011;39546;45.534;12.048;2023-06-10T16:27:41;7.18;;;1.48;;
53642;SDS011;39546;45.534;12.048;2023-06-10T16:33:43;2.22;;;1.27;;
53642;SDS011;39546;45.534;12.048;2023-06-10T16:39:45;3.15;;;1.60;;
53642;SDS011;39546;45.534;12.048;2023-06-10T16:45:47;2.87;;;1.58;;
53642;SDS011;39546;45.534;12.048;2023-06-10T16:51:50;4.07;;;1.83;;
53642;SDS011;39546;45.534;12.048;2023-06-10T16:57:52;3.92;;;2.08;;
53642;SDS011;39546;45.534;12.048;2023-06-10T17:03:54;3.67;;;1.65;;
53642;SDS011;39546;45.534;12.048;2023-06-10T17:09:56;7.78;;;1.80;;
53642;SDS011;39546;45.534;12.048;2023-06-10T17:15:58;3.92;;;2.15;;
53642;SDS011;39546;45.534;12.048;2023-06-10T17:22:00;3.42;;;2.10;;
53642;SDS011;39546;45.534;12.048;2023-06-10T17:28:03;3.37;;;1.67;;
53642;SDS011;39546;45.534;12.048;2023-06-10T17:34:05;2.58;;;1.73;;
53642;SDS011;39546;45.534;12.048;2023-06-10T17:40:07;2.60;;;1.75;;
53642;SDS011;39546;45.534;12.048;2023-06-10T17:46:10;5.07;;;2.35;;
53642;SDS011;39546;45.534;12.048;2023-06-10T17:52:12;4.70;;;2.75;;
53642;SDS011;39546;45.534;12.048;2023-06-10T17:58:14;4.30;;;2.83;;
53642;SDS011;39546;45.534;12.048;2023-06-10T18:04:17;5.12;;;2.65;;
53642;SDS011;39546;45.534;12.048;2023-06-10T18:10:19;6.18;;;4.20;;
53642;SDS011;39546;45.534;12.048;2023-06-10T18:16:22;3.83;;;2.65;;
53642;SDS011;39546;45.534;12.048;2023-06-10T18:22:24;5.65;;;3.78;;
53642;SDS011;39546;45.534;12.048;2023-06-10T18:28:26;7.35;;;5.78;;
53642;SDS011;39546;45.534;12.048;2023-06-10T18:34:31;6.85;;;4.25;;
53642;SDS011;39546;45.534;12.048;2023-06-10T18:40:33;12.50;;;8.93;;
53642;SDS011;39546;45.534;12.048;2023-06-10T18:46:36;8.32;;;6.82;;
53642;SDS011;39546;45.534;12.048;2023-06-10T18:52:41;6.87;;;4.95;;
53642;SDS011;39546;45.534;12.048;2023-06-10T18:58:43;6.05;;;4.30;;
53642;SDS011;39546;45.534;12.048;2023-06-10T19:04:48;7.70;;;4.90;;
53642;SDS011;39546;45.534;12.048;2023-06-10T19:10:50;6.40;;;4.85;;
53642;SDS011;39546;45.534;12.048;2023-06-10T19:16:52;8.95;;;5.28;;
53642;SDS011;39546;45.534;12.048;2023-06-10T19:22:54;10.02;;;4.97;;
53642;SDS011;39546;45.534;12.048;2023-06-10T19:28:56;9.68;;;4.43;;
53642;SDS011;39546;45.534;12.048;2023-06-10T19:34:58;7.05;;;4.28;;
53642;SDS011;39546;45.534;12.048;2023-06-10T19:41:01;6.57;;;4.00;;
53642;SDS011;39546;45.534;12.048;2023-06-10T19:47:05;5.40;;;3.75;;
53642;SDS011;39546;45.534;12.048;2023-06-10T19:53:08;6.62;;;4.65;;
53642;SDS011;39546;45.534;12.048;2023-06-10T19:59:11;7.35;;;4.45;;
53642;SDS011;39546;45.534;12.048;2023-06-10T20:05:14;7.07;;;5.30;;
53642;SDS011;39546;45.534;12.048;2023-06-10T20:11:17;6.57;;;4.80;;
53642;SDS011;39546;45.534;12.048;2023-06-10T20:17:19;5.03;;;3.87;;
53642;SDS011;39546;45.534;12.048;2023-06-10T20:23:21;7.75;;;5.37;;
53642;SDS011;39546;45.534;12.048;2023-06-10T20:29:23;8.65;;;4.90;;
53642;SDS011;39546;45.534;12.048;2023-06-10T20:35:28;8.48;;;5.32;;
53642;SDS011;39546;45.534;12.048;2023-06-10T20:41:31;8.15;;;5.10;;
53642;SDS011;39546;45.534;12.048;2023-06-10T20:47:35;7.80;;;5.20;;
53642;SDS011;39546;45.534;12.048;2023-06-10T20:53:38;5.75;;;4.15;;
53642;SDS011;39546;45.534;12.048;2023-06-10T20:59:41;7.57;;;5.43;;
53642;SDS011;39546;45.534;12.048;2023-06-10T21:05:45;7.45;;;5.18;;
53642;SDS011;39546;45.534;12.048;2023-06-10T21:11:47;7.28;;;5.50;;
53642;SDS011;39546;45.534;12.048;2023-06-10T21:17:49;6.50;;;4.55;;
53642;SDS011;39546;45.534;12.048;2023-06-10T21:23:51;7.50;;;5.43;;
53642;SDS011;39546;45.534;12.048;2023-06-10T21:29:55;8.85;;;6.00;;
53642;SDS011;39546;45.534;12.048;2023-06-10T21:35:57;7.70;;;5.28;;
53642;SDS011;39546;45.534;12.048;2023-06-10T21:41:59;5.82;;;3.85;;
53642;SDS011;39546;45.534;12.048;2023-06-10T21:48:01;7.93;;;5.97;;
53642;SDS011;39546;45.534;12.048;2023-06-10T21:54:04;7.87;;;5.72;;
53642;SDS011;39546;45.534;12.048;2023-06-10T22:00:06;8.98;;;6.85;;
53642;SDS011;39546;45.534;12.048;2023-06-10T22:06:14;10.07;;;6.10;;
53642;SDS011;39546;45.534;12.048;2023-06-10T22:12:17;10.70;;;7.12;;
53642;SDS011;39546;45.534;12.048;2023-06-10T22:18:19;9.88;;;7.12;;
53642;SDS011;39546;45.534;12.048;2023-06-10T22:24:21;8.70;;;6.35;;
53642;SDS011;39546;45.534;12.048;2023-06-10T22:30:23;8.63;;;5.78;;
53642;SDS011;39546;45.534;12.048;2023-06-10T22:42:50;7.97;;;5.75;;
53642;SDS011;39546;45.534;12.048;2023-06-10T22:48:52;8.73;;;6.53;;
53642;SDS011;39546;45.534;12.048;2023-06-10T22:54:54;7.85;;;6.53;;
53642;SDS011;39546;45.534;12.048;2023-06-10T23:07:24;10.35;;;7.10;;
53642;SDS011;39546;45.534;12.048;2023-06-10T23:13:26;6.68;;;5.30;;
53642;SDS011;39546;45.534;12.048;2023-06-10T23:19:29;9.57;;;5.53;;
53642;SDS011;39546;45.534;12.048;2023-06-10T23:25:31;5.10;;;3.75;;
53642;SDS011;39546;45.534;12.048;2023-06-10T23:31:33;16.55;;;7.03;;
53642;SDS011;39546;45.534;12.048;2023-06-10T23:37:36;7.28;;;5.20;;
53642;SDS011;39546;45.534;12.048;2023-06-10T23:43:38;5.93;;;4.32;;
53642;SDS011;39546;45.534;12.048;2023-06-10T23:49:40;7.37;;;4.97;;
53642;SDS011;39546;45.534;12.048;2023-06-10T23:55:42;8.23;;;5.32;;
